Time;durP1;ratioP1;P1;durP2;ratioP2;P2;SDS_P1;SDS_P2;PMS_P1;PMS_P2;Temp;Humidity;BMP_temperature;BMP_pressure;BME280_temperature;BME280_humidity;BME280_pressure;Samples;Min_cycle;Max_cycle;Signal;HPM_P1;HPM_P2
2021/05/14 00:01:02;;;;;;;10.98;7.60;;;;;;;;;;5066850;28;20094;-84
2021/05/14 00:03:28;;;;;;;9.35;6.88;;;;;;;;;;5051821;28;20131;-84
2021/05/14 00:05:54;;;;;;;10.40;7.03;;;;;;;;;;5052229;28;20064;-83
2021/05/14 00:08:20;;;;;;;10.30;7.57;;;;;;;;;;5052065;28;20032;-83
2021/05/14 00:10:47;;;;;;;8.85;6.75;;;;;;;;;;5052026;28;20045;-83
2021/05/14 00:13:13;;;;;;;9.13;6.32;;;;;;;;;;5067494;28;20063;-82
2021/05/14 00:15:40;;;;;;;10.90;7.22;;;;;;;;;;5067309;28;20041;-83
2021/05/14 00:18:11;;;;;;;11.82;6.60;;;;;;;;;;5066611;28;20044;-83
2021/05/14 00:20:37;;;;;;;9.85;6.45;;;;;;;;;;5051847;28;20029;-82
2021/05/14 00:23:05;;;;;;;9.18;6.05;;;;;;;;;;5067280;28;20041;-83
2021/05/14 00:25:31;;;;;;;10.15;7.00;;;;;;;;;;5050632;28;20063;-82
2021/05/14 00:27:57;;;;;;;8.95;6.25;;;;;;;;;;5067293;28;20095;-83
2021/05/14 00:30:23;;;;;;;11.07;6.78;;;;;;;;;;5067290;28;20392;-83
2021/05/14 00:32:49;;;;;;;8.95;6.75;;;;;;;;;;5067167;28;20045;-83
2021/05/14 00:35:17;;;;;;;9.07;5.93;;;;;;;;;;5051812;28;20476;-82
2021/05/14 00:37:43;;;;;;;9.00;6.80;;;;;;;;;;5067128;28;20427;-82
2021/05/14 00:40:09;;;;;;;8.88;5.55;;;;;;;;;;5051503;28;20049;-82
2021/05/14 00:42:35;;;;;;;8.95;6.05;;;;;;;;;;5067105;28;20049;-82
2021/05/14 00:45:01;;;;;;;11.38;6.93;;;;;;;;;;5067078;28;20033;-82
2021/05/14 00:47:28;;;;;;;8.73;6.40;;;;;;;;;;5051518;28;20037;-82
2021/05/14 00:49:54;;;;;;;9.02;7.07;;;;;;;;;;5051812;28;20041;-81
2021/05/14 00:52:20;;;;;;;11.57;7.22;;;;;;;;;;5067119;28;20047;-82
2021/05/14 00:54:50;;;;;;;9.23;6.38;;;;;;;;;;5067070;28;20484;-82
2021/05/14 00:57:16;;;;;;;9.20;6.38;;;;;;;;;;5051419;28;20480;-83
2021/05/14 00:59:46;;;;;;;8.85;5.60;;;;;;;;;;5066797;28;20123;-82
2021/05/14 01:02:12;;;;;;;8.93;6.15;;;;;;;;;;5066797;28;20048;-83
2021/05/14 01:04:38;;;;;;;8.77;5.78;;;;;;;;;;5051456;28;20114;-82
2021/05/14 01:07:04;;;;;;;9.95;6.80;;;;;;;;;;5066748;28;20037;-83
2021/05/14 01:09:30;;;;;;;9.50;5.93;;;;;;;;;;5051431;28;20504;-83
2021/05/14 01:11:57;;;;;;;10.38;7.22;;;;;;;;;;5066757;28;20257;-83
2021/05/14 01:14:23;;;;;;;12.80;7.63;;;;;;;;;;5070395;28;20037;-83
2021/05/14 01:16:49;;;;;;;10.98;6.63;;;;;;;;;;5070326;28;20037;-82
2021/05/14 01:19:15;;;;;;;9.63;6.50;;;;;;;;;;5054999;28;20037;-84
2021/05/14 01:21:41;;;;;;;11.40;7.18;;;;;;;;;;5054816;28;20041;-84
2021/05/14 01:24:08;;;;;;;9.07;7.13;;;;;;;;;;5054899;28;20094;-84
2021/05/14 01:26:34;;;;;;;12.13;7.30;;;;;;;;;;5054639;28;20108;-85
2021/05/14 01:29:01;;;;;;;10.30;6.55;;;;;;;;;;5070181;28;20037;-85
2021/05/14 01:31:27;;;;;;;12.35;7.00;;;;;;;;;;5070008;28;20076;-84
2021/05/14 01:33:53;;;;;;;9.85;6.90;;;;;;;;;;5070414;28;20084;-84
2021/05/14 01:36:19;;;;;;;9.13;6.35;;;;;;;;;;5054634;28;20072;-85
2021/05/14 01:38:45;;;;;;;10.82;7.32;;;;;;;;;;5070014;28;20120;-84
2021/05/14 01:41:11;;;;;;;11.27;6.97;;;;;;;;;;5054171;28;20060;-84
2021/05/14 01:43:37;;;;;;;9.25;6.57;;;;;;;;;;5053283;28;20591;-84
2021/05/14 01:46:04;;;;;;;10.90;6.55;;;;;;;;;;5053271;28;20135;-84
2021/05/14 01:48:30;;;;;;;9.75;6.30;;;;;;;;;;5053463;28;20056;-83
2021/05/14 01:50:58;;;;;;;11.60;6.57;;;;;;;;;;5054532;28;20623;-83
2021/05/14 01:53:24;;;;;;;10.07;7.20;;;;;;;;;;5069887;28;20044;-83
2021/05/14 01:55:50;;;;;;;8.88;6.57;;;;;;;;;;5054191;28;20036;-83
2021/05/14 01:58:16;;;;;;;9.70;6.68;;;;;;;;;;5069583;28;20087;-84
2021/05/14 02:00:42;;;;;;;10.52;6.35;;;;;;;;;;5069757;28;20067;-83
2021/05/14 02:03:08;;;;;;;10.25;6.65;;;;;;;;;;5069527;28;20044;-84
2021/05/14 02:05:34;;;;;;;9.55;7.10;;;;;;;;;;5069604;28;20071;-83
2021/05/14 02:08:00;;;;;;;9.52;6.57;;;;;;;;;;5069396;28;20033;-83
2021/05/14 02:10:26;;;;;;;11.15;6.95;;;;;;;;;;5069582;28;20247;-83
2021/05/14 02:12:53;;;;;;;10.85;7.53;;;;;;;;;;5069487;28;20051;-83
2021/05/14 02:15:20;;;;;;;13.63;7.75;;;;;;;;;;5054053;28;20037;-83
2021/05/14 02:17:46;;;;;;;9.50;6.28;;;;;;;;;;5052649;28;20435;-83
2021/05/14 02:20:12;;;;;;;12.85;8.23;;;;;;;;;;5069301;28;20068;-84
2021/05/14 02:22:38;;;;;;;12.45;7.90;;;;;;;;;;5069139;28;20403;-84
2021/05/14 02:25:05;;;;;;;12.80;7.35;;;;;;;;;;5068395;28;20040;-83
2021/05/14 02:27:34;;;;;;;12.90;7.75;;;;;;;;;;5068684;28;20536;-83
2021/05/14 02:30:01;;;;;;;13.20;8.02;;;;;;;;;;5069076;28;20037;-84
2021/05/14 02:32:27;;;;;;;11.27;7.13;;;;;;;;;;5069242;28;20040;-85
2021/05/14 02:34:53;;;;;;;12.48;7.78;;;;;;;;;;5053547;28;20041;-85
2021/05/14 02:37:19;;;;;;;11.00;7.22;;;;;;;;;;5053407;28;20044;-84
2021/05/14 02:39:45;;;;;;;12.48;7.60;;;;;;;;;;5053254;28;20045;-84
2021/05/14 02:42:11;;;;;;;10.60;6.95;;;;;;;;;;5053348;28;20099;-85
2021/05/14 02:44:38;;;;;;;14.55;8.23;;;;;;;;;;5068599;28;20087;-85
2021/05/14 02:47:04;;;;;;;12.85;7.97;;;;;;;;;;5053421;28;20037;-85
2021/05/14 02:49:30;;;;;;;14.90;7.90;;;;;;;;;;5068678;28;20043;-85
2021/05/14 02:51:56;;;;;;;15.95;8.32;;;;;;;;;;5068694;28;20045;-85
2021/05/14 02:54:22;;;;;;;15.55;9.13;;;;;;;;;;5053204;28;20503;-85
2021/05/14 02:56:48;;;;;;;14.90;8.00;;;;;;;;;;5068566;28;20131;-85
2021/05/14 02:59:14;;;;;;;13.52;8.02;;;;;;;;;;5068479;28;20116;-85
2021/05/14 03:01:40;;;;;;;16.48;9.93;;;;;;;;;;5068468;28;20476;-84
2021/05/14 03:04:06;;;;;;;17.52;9.20;;;;;;;;;;5068395;28;20484;-84
2021/05/14 03:06:35;;;;;;;17.27;9.30;;;;;;;;;;5051529;28;20053;-85
2021/05/14 03:09:01;;;;;;;15.43;9.50;;;;;;;;;;5052971;28;20043;-83
2021/05/14 03:11:27;;;;;;;18.90;9.40;;;;;;;;;;5053026;28;20037;-83
2021/05/14 03:13:55;;;;;;;17.55;10.02;;;;;;;;;;5068250;28;20045;-83
2021/05/14 03:16:22;;;;;;;14.95;9.27;;;;;;;;;;5052732;28;20033;-83
2021/05/14 03:18:48;;;;;;;19.95;10.57;;;;;;;;;;5051471;28;20041;-84
2021/05/14 03:21:14;;;;;;;18.63;10.48;;;;;;;;;;5067993;28;20041;-84
2021/05/14 03:23:40;;;;;;;19.38;10.20;;;;;;;;;;5068023;28;20075;-84
2021/05/14 03:26:06;;;;;;;19.85;10.40;;;;;;;;;;5067998;28;20079;-84
2021/05/14 03:28:32;;;;;;;17.38;9.02;;;;;;;;;;5068044;28;20060;-84
2021/05/14 03:30:58;;;;;;;15.50;9.02;;;;;;;;;;5051681;28;20048;-85
2021/05/14 03:33:24;;;;;;;15.85;9.15;;;;;;;;;;5068076;28;20041;-83
2021/05/14 03:35:51;;;;;;;18.00;9.88;;;;;;;;;;5052302;28;20477;-83
2021/05/14 03:38:17;;;;;;;18.25;9.85;;;;;;;;;;5067662;28;20044;-84
2021/05/14 03:40:44;;;;;;;23.48;11.13;;;;;;;;;;5067654;28;20045;-83
2021/05/14 03:43:11;;;;;;;22.58;11.77;;;;;;;;;;5067438;28;20133;-83
2021/05/14 03:45:37;;;;;;;20.08;10.95;;;;;;;;;;5067744;28;20060;-83
2021/05/14 03:48:18;;;;;;;18.13;10.05;;;;;;;;;;5052206;28;20037;-83
2021/05/14 03:50:44;;;;;;;19.75;9.32;;;;;;;;;;5051045;28;20119;-83
2021/05/14 03:53:10;;;;;;;14.88;7.75;;;;;;;;;;5050961;28;20052;-83
2021/05/14 03:55:36;;;;;;;11.52;6.68;;;;;;;;;;5050939;28;20040;-83
2021/05/14 03:58:02;;;;;;;9.95;6.60;;;;;;;;;;5052152;28;20094;-83
2021/05/14 04:00:28;;;;;;;11.23;6.60;;;;;;;;;;5052249;28;20570;-83
2021/05/14 04:02:55;;;;;;;13.95;6.60;;;;;;;;;;5067350;28;20056;-83
2021/05/14 04:05:21;;;;;;;14.35;6.68;;;;;;;;;;5067508;28;20060;-84
2021/05/14 04:07:48;;;;;;;14.05;7.53;;;;;;;;;;5051990;28;20480;-84
2021/05/14 04:15:34;;;;;;;11.35;6.47;;;;;;;;;;5066150;28;20123;-84
2021/05/14 04:18:00;;;;;;;11.82;7.00;;;;;;;;;;5067447;28;20041;-84
2021/05/14 04:20:26;;;;;;;10.98;6.00;;;;;;;;;;5067397;28;20044;-84
2021/05/14 04:22:52;;;;;;;13.75;6.32;;;;;;;;;;5067215;28;20095;-83
2021/05/14 04:25:18;;;;;;;10.20;5.53;;;;;;;;;;5067321;28;20420;-84
2021/05/14 04:27:44;;;;;;;9.85;5.18;;;;;;;;;;5067217;28;20045;-83
2021/05/14 04:30:10;;;;;;;10.20;5.32;;;;;;;;;;5050614;28;20556;-82
2021/05/14 04:32:36;;;;;;;14.23;5.47;;;;;;;;;;5051778;28;20496;-82
2021/05/14 04:35:03;;;;;;;7.20;4.82;;;;;;;;;;5067254;28;20037;-83
2021/05/14 04:37:29;;;;;;;10.18;4.50;;;;;;;;;;5050624;28;20480;-82
2021/05/14 04:39:55;;;;;;;9.63;4.30;;;;;;;;;;5051581;28;20037;-82
2021/05/14 04:42:21;;;;;;;8.77;4.32;;;;;;;;;;5051637;28;20424;-82
2021/05/14 04:44:47;;;;;;;9.82;4.15;;;;;;;;;;5050499;28;20033;-82
2021/05/14 04:47:13;;;;;;;6.40;3.92;;;;;;;;;;5051725;28;20124;-82
2021/05/14 04:49:39;;;;;;;7.63;4.18;;;;;;;;;;5055555;28;20041;-82
2021/05/14 04:52:17;;;;;;;6.28;3.92;;;;;;;;;;5054523;28;20084;-82
2021/05/14 04:54:43;;;;;;;8.05;3.67;;;;;;;;;;5055348;28;20163;-82
2021/05/14 04:57:10;;;;;;;8.35;3.85;;;;;;;;;;5055280;28;20118;-82
2021/05/14 04:59:36;;;;;;;7.22;3.35;;;;;;;;;;5055361;28;20068;-83
2021/05/14 05:02:04;;;;;;;6.78;3.13;;;;;;;;;;5055528;28;20044;-86
2021/05/14 05:04:30;;;;;;;9.07;4.10;;;;;;;;;;5054137;28;20064;-84
2021/05/14 05:06:56;;;;;;;7.50;3.53;;;;;;;;;;5070599;28;20064;-84
2021/05/14 05:09:22;;;;;;;9.93;3.92;;;;;;;;;;5055252;28;20041;-84
2021/05/14 05:11:48;;;;;;;10.07;3.67;;;;;;;;;;5055073;28;20052;-84
2021/05/14 05:14:14;;;;;;;8.27;3.95;;;;;;;;;;5070525;28;20475;-83
2021/05/14 05:16:41;;;;;;;8.15;3.75;;;;;;;;;;5055021;28;20443;-83
2021/05/14 05:19:07;;;;;;;12.85;3.92;;;;;;;;;;5055053;28;20033;-83
2021/05/14 05:21:34;;;;;;;9.88;4.28;;;;;;;;;;5053597;28;20048;-82
2021/05/14 05:24:00;;;;;;;11.57;4.65;;;;;;;;;;5070424;28;20072;-84
2021/05/14 05:26:29;;;;;;;11.02;4.28;;;;;;;;;;5054822;28;20250;-83
2021/05/14 05:28:55;;;;;;;12.23;4.22;;;;;;;;;;5053811;28;20087;-84
2021/05/14 05:31:21;;;;;;;13.27;4.40;;;;;;;;;;5070234;28;20045;-83
2021/05/14 05:33:47;;;;;;;9.25;4.05;;;;;;;;;;5054755;28;20044;-82
2021/05/14 05:36:13;;;;;;;8.20;3.78;;;;;;;;;;5069992;28;20040;-83
2021/05/14 05:38:39;;;;;;;7.47;4.20;;;;;;;;;;5069641;28;20048;-83
2021/05/14 05:41:05;;;;;;;11.45;4.13;;;;;;;;;;5054550;28;20040;-84
2021/05/14 05:43:31;;;;;;;7.72;3.78;;;;;;;;;;5054640;28;20122;-83
2021/05/14 05:45:57;;;;;;;8.23;4.03;;;;;;;;;;5054497;28;20049;-82
2021/05/14 05:48:23;;;;;;;8.32;3.90;;;;;;;;;;5069793;28;20075;-82
2021/05/14 05:50:50;;;;;;;8.07;4.53;;;;;;;;;;5069845;28;20477;-83
2021/05/14 05:53:16;;;;;;;8.82;4.45;;;;;;;;;;5054225;28;20037;-82
2021/05/14 05:55:42;;;;;;;7.60;3.85;;;;;;;;;;5054417;28;20037;-82
2021/05/14 05:58:11;;;;;;;11.65;4.18;;;;;;;;;;5054207;28;20495;-83
2021/05/14 06:00:37;;;;;;;6.15;3.35;;;;;;;;;;5068577;28;20063;-83
2021/05/14 06:03:04;;;;;;;11.02;4.25;;;;;;;;;;5069657;28;20102;-84
2021/05/14 06:05:30;;;;;;;9.20;3.35;;;;;;;;;;5052968;28;20480;-84
2021/05/14 06:07:56;;;;;;;7.32;3.50;;;;;;;;;;5069291;28;20174;-84
2021/05/14 06:10:22;;;;;;;7.82;3.50;;;;;;;;;;5069488;28;20456;-85
2021/05/14 06:12:48;;;;;;;8.30;3.42;;;;;;;;;;5069491;28;20128;-85
2021/05/14 06:15:14;;;;;;;10.95;4.35;;;;;;;;;;5052817;28;20071;-84
2021/05/14 06:17:42;;;;;;;7.28;3.65;;;;;;;;;;5069209;28;20041;-84
2021/05/14 06:20:09;;;;;;;11.80;3.72;;;;;;;;;;5069263;28;20041;-84
2021/05/14 06:22:36;;;;;;;10.13;4.35;;;;;;;;;;5070324;28;20124;-85
2021/05/14 06:25:02;;;;;;;11.52;4.72;;;;;;;;;;5071233;28;20064;-85
2021/05/14 06:27:30;;;;;;;9.82;3.70;;;;;;;;;;5052372;28;20048;-84
2021/05/14 06:29:56;;;;;;;10.88;4.20;;;;;;;;;;5052405;28;20120;-84
2021/05/14 06:32:22;;;;;;;9.50;4.07;;;;;;;;;;5069084;28;20439;-83
2021/05/14 06:34:49;;;;;;;7.82;4.13;;;;;;;;;;5068924;28;20047;-82
2021/05/14 06:37:15;;;;;;;7.32;3.88;;;;;;;;;;5068791;28;20072;-83
2021/05/14 06:39:42;;;;;;;10.35;4.50;;;;;;;;;;5068522;28;20062;-83
2021/05/14 06:42:08;;;;;;;9.30;3.90;;;;;;;;;;5068759;28;20485;-81
2021/05/14 06:44:36;;;;;;;12.20;4.45;;;;;;;;;;5068766;28;20396;-83
2021/05/14 06:47:02;;;;;;;85.97;8.38;;;;;;;;;;5053404;28;20120;-83
2021/05/14 06:49:30;;;;;;;33.95;5.45;;;;;;;;;;5068327;28;20486;-83
2021/05/14 06:51:56;;;;;;;38.75;5.63;;;;;;;;;;5068552;28;20469;-83
2021/05/14 06:54:22;;;;;;;53.65;6.20;;;;;;;;;;5068686;28;20531;-83
2021/05/14 06:56:48;;;;;;;57.45;7.10;;;;;;;;;;5068591;28;20041;-83
2021/05/14 06:59:14;;;;;;;37.85;6.53;;;;;;;;;;5068517;28;20400;-83
2021/05/14 07:01:40;;;;;;;57.08;6.97;;;;;;;;;;5052927;28;20392;-83
2021/05/14 07:04:07;;;;;;;27.02;5.43;;;;;;;;;;5052866;28;20510;-82
2021/05/14 07:06:33;;;;;;;24.17;5.45;;;;;;;;;;5053170;28;20032;-83
2021/05/14 07:09:03;;;;;;;23.48;4.88;;;;;;;;;;5068027;28;20033;-85
2021/05/14 07:11:30;;;;;;;41.03;7.03;;;;;;;;;;5067760;28;20110;-85
2021/05/14 07:13:57;;;;;;;24.13;4.80;;;;;;;;;;5068061;28;20033;-86
2021/05/14 07:16:23;;;;;;;12.43;3.58;;;;;;;;;;5068018;28;20469;-85
2021/05/14 07:18:50;;;;;;;9.68;3.58;;;;;;;;;;5051412;28;20472;-85
2021/05/14 07:21:17;;;;;;;9.05;3.58;;;;;;;;;;5068037;28;20036;-85
2021/05/14 07:23:43;;;;;;;9.05;3.15;;;;;;;;;;5067799;28;20039;-86
2021/05/14 07:26:09;;;;;;;8.50;3.00;;;;;;;;;;5051186;28;20048;-82
2021/05/14 07:28:35;;;;;;;8.77;3.28;;;;;;;;;;5052396;28;20396;-84
2021/05/14 07:31:01;;;;;;;14.57;3.63;;;;;;;;;;5067759;28;20036;-85
2021/05/14 07:33:27;;;;;;;7.30;3.13;;;;;;;;;;5067904;28;20047;-84
2021/05/14 07:35:54;;;;;;;6.50;3.10;;;;;;;;;;5067885;28;20049;-84
2021/05/14 07:38:20;;;;;;;16.60;4.00;;;;;;;;;;5051234;28;20469;-84
2021/05/14 07:40:46;;;;;;;19.90;3.92;;;;;;;;;;5067646;28;20045;-83
2021/05/14 07:43:12;;;;;;;8.55;3.33;;;;;;;;;;5067803;28;20040;-83
2021/05/14 07:45:38;;;;;;;7.78;3.30;;;;;;;;;;5052307;28;20145;-83
2021/05/14 07:48:05;;;;;;;10.20;3.50;;;;;;;;;;5067819;28;20102;-83
2021/05/14 07:50:31;;;;;;;9.23;3.60;;;;;;;;;;5067678;28;20092;-85
2021/05/14 07:52:57;;;;;;;11.70;4.53;;;;;;;;;;5067330;28;20080;-82
2021/05/14 07:55:23;;;;;;;10.63;3.58;;;;;;;;;;5067528;28;20112;-83
2021/05/14 07:57:49;;;;;;;13.40;3.78;;;;;;;;;;5052034;28;20033;-83
2021/05/14 08:00:22;;;;;;;11.52;4.25;;;;;;;;;;5050792;28;20087;-83
2021/05/14 08:02:48;;;;;;;8.82;3.50;;;;;;;;;;5067299;28;20041;-82
2021/05/14 08:05:15;;;;;;;13.93;3.13;;;;;;;;;;5052487;28;20095;-83
2021/05/14 08:07:41;;;;;;;10.82;3.92;;;;;;;;;;5068345;28;20499;-83
2021/05/14 08:10:07;;;;;;;11.77;4.35;;;;;;;;;;5052391;28;20148;-83
2021/05/14 08:12:34;;;;;;;6.95;3.88;;;;;;;;;;5052197;28;20092;-83
2021/05/14 08:15:02;;;;;;;9.15;4.40;;;;;;;;;;5067006;28;20120;-84
2021/05/14 08:17:28;;;;;;;9.48;4.38;;;;;;;;;;5067328;28;20045;-81
2021/05/14 08:20:01;;;;;;;;;;;;;;;;;;5066843;28;20049;-80
2021/05/14 08:22:42;;;;;;;10.43;4.47;;;;;;;;;;5036898;28;19923;-79
2021/05/14 08:25:09;;;;;;;13.65;4.25;;;;;;;;;;5056001;28;20037;-81
2021/05/14 08:27:35;;;;;;;8.68;4.32;;;;;;;;;;5055995;28;20389;-86
2021/05/14 08:30:01;;;;;;;10.70;3.88;;;;;;;;;;5054677;28;20072;-83
2021/05/14 08:32:35;;;;;;;9.23;4.60;;;;;;;;;;5054779;28;20127;-84
2021/05/14 08:35:01;;;;;;;13.85;4.20;;;;;;;;;;5054640;28;20036;-81
2021/05/14 08:37:27;;;;;;;9.02;4.40;;;;;;;;;;5055695;28;20045;-82
2021/05/14 08:39:54;;;;;;;10.10;4.18;;;;;;;;;;5070842;28;20033;-81
2021/05/14 08:42:20;;;;;;;10.55;4.47;;;;;;;;;;5055637;28;20045;-84
2021/05/14 08:45:07;;;;;;;10.10;4.88;;;;;;;;;;5055061;28;20041;-81
2021/05/14 08:47:38;;;;;;;12.25;5.00;;;;;;;;;;5070695;28;20037;-80
2021/05/14 08:50:05;;;;;;;11.43;4.85;;;;;;;;;;5054414;28;20086;-81
2021/05/14 08:52:33;;;;;;;10.35;4.88;;;;;;;;;;5055419;28;20087;-85
2021/05/14 08:55:00;;;;;;;11.80;4.93;;;;;;;;;;5055440;28;20045;-84
2021/05/14 08:57:28;;;;;;;9.10;4.88;;;;;;;;;;5037700;28;20124;-83
2021/05/14 08:59:55;;;;;;;13.32;5.50;;;;;;;;;;5054159;28;20044;-82
2021/05/14 09:02:21;;;;;;;12.02;5.05;;;;;;;;;;5055301;28;20080;-82
2021/05/14 09:04:47;;;;;;;10.73;5.53;;;;;;;;;;5070569;28;20104;-82
2021/05/14 09:07:16;;;;;;;18.15;5.90;;;;;;;;;;5053808;28;20045;-82
2021/05/14 09:10:02;;;;;;;13.65;6.03;;;;;;;;;;5070684;28;20507;-83
2021/05/14 09:12:33;;;;;;;14.40;6.35;;;;;;;;;;5054037;28;20032;-80
2021/05/14 09:15:18;;;;;;;15.40;6.40;;;;;;;;;;5053809;28;20048;-81
2021/05/14 09:18:01;;;;;;;13.63;5.80;;;;;;;;;;5053742;28;20060;-82
2021/05/14 09:20:47;;;;;;;11.25;6.85;;;;;;;;;;5069001;28;20511;-81
2021/05/14 09:23:17;;;;;;;14.27;6.72;;;;;;;;;;5070040;28;20039;-81
2021/05/14 09:25:56;;;;;;;12.63;6.72;;;;;;;;;;5054844;28;20103;-81
2021/05/14 09:28:23;;;;;;;15.35;8.02;;;;;;;;;;5070210;28;20037;-81
2021/05/14 09:31:18;;;;;;;18.83;7.10;;;;;;;;;;5070184;28;20033;-81
2021/05/14 09:33:45;;;;;;;14.15;7.28;;;;;;;;;;5054047;28;20060;-81
2021/05/14 09:36:12;;;;;;;14.80;6.95;;;;;;;;;;5053407;28;20378;-81
2021/05/14 09:38:58;;;;;;;9.48;6.25;;;;;;;;;;5068342;28;20040;-81
2021/05/14 09:41:25;;;;;;;12.18;6.63;;;;;;;;;;5069884;28;20052;-81
2021/05/14 09:43:54;;;;;;;15.93;6.97;;;;;;;;;;5053348;28;20043;-81
2021/05/14 09:46:29;;;;;;;14.57;6.75;;;;;;;;;;5053090;28;20116;-82
2021/05/14 09:48:56;;;;;;;17.50;6.13;;;;;;;;;;5051931;28;20037;-82
2021/05/14 09:51:22;;;;;;;12.60;6.47;;;;;;;;;;5052770;28;20061;-84
2021/05/14 09:53:49;;;;;;;14.40;7.13;;;;;;;;;;5054391;28;20045;-84
2021/05/14 09:56:26;;;;;;;13.38;7.07;;;;;;;;;;5035806;28;20095;-84
2021/05/14 09:58:54;;;;;;;13.80;7.32;;;;;;;;;;5051500;28;20029;-84
2021/05/14 10:01:23;;;;;;;15.07;7.80;;;;;;;;;;5052732;28;20068;-84
2021/05/14 10:03:52;;;;;;;16.45;7.65;;;;;;;;;;5036522;28;20045;-81
2021/05/14 10:06:19;;;;;;;15.32;6.95;;;;;;;;;;5052716;28;20059;-81
2021/05/14 10:08:50;;;;;;;16.23;7.30;;;;;;;;;;5052929;28;20055;-81
2021/05/14 10:11:16;;;;;;;13.13;7.00;;;;;;;;;;5036851;28;20047;-81
2021/05/14 10:13:42;;;;;;;12.85;6.78;;;;;;;;;;5052655;28;20045;-82
2021/05/14 10:16:08;;;;;;;15.80;7.50;;;;;;;;;;5052637;28;20544;-81
2021/05/14 10:18:36;;;;;;;13.55;7.28;;;;;;;;;;5052714;28;20044;-81
2021/05/14 10:21:09;;;;;;;11.55;6.07;;;;;;;;;;5052593;28;20090;-81
2021/05/14 10:23:35;;;;;;;10.38;6.93;;;;;;;;;;5035948;28;20091;-81
2021/05/14 10:26:08;;;;;;;14.32;6.15;;;;;;;;;;5052511;28;20048;-82
2021/05/14 10:29:00;;;;;;;11.27;5.68;;;;;;;;;;5036141;28;20037;-82
2021/05/14 10:31:26;;;;;;;14.65;6.22;;;;;;;;;;5034216;28;20057;-81
2021/05/14 10:33:58;;;;;;;13.02;6.45;;;;;;;;;;5044979;28;20044;-82
2021/05/14 10:36:26;;;;;;;10.70;5.65;;;;;;;;;;5052158;28;20040;-82
2021/05/14 10:39:03;;;;;;;10.35;5.20;;;;;;;;;;5052202;28;20502;-82
2021/05/14 10:41:30;;;;;;;9.95;5.95;;;;;;;;;;5052024;28;20045;-82
2021/05/14 10:44:03;;;;;;;10.07;5.18;;;;;;;;;;5052089;28;20072;-81
2021/05/14 10:46:29;;;;;;;14.88;5.53;;;;;;;;;;5034941;28;20052;-82
2021/05/14 10:49:29;;;;;;;12.57;5.30;;;;;;;;;;5051987;28;20037;-83
2021/05/14 10:52:04;;;;;;;12.30;5.65;;;;;;;;;;5050990;28;20049;-82
2021/05/14 10:54:39;;;;;;;13.32;5.40;;;;;;;;;;5035207;28;20049;-82
2021/05/14 10:57:09;;;;;;;13.57;5.75;;;;;;;;;;5053009;28;20366;-82
2021/05/14 10:59:35;;;;;;;9.85;5.90;;;;;;;;;;5052917;28;20477;-82
2021/05/14 11:02:02;;;;;;;11.32;5.78;;;;;;;;;;5051659;28;20498;-82
2021/05/14 11:04:37;;;;;;;13.73;6.15;;;;;;;;;;5052980;28;20126;-82
2021/05/14 11:07:04;;;;;;;14.10;6.05;;;;;;;;;;5035433;28;20440;-82
2021/05/14 11:09:30;;;;;;;11.88;6.03;;;;;;;;;;5052842;28;20169;-82
2021/05/14 11:12:10;;;;;;;11.90;6.45;;;;;;;;;;5051556;28;20037;-82
2021/05/14 11:14:39;;;;;;;14.65;6.13;;;;;;;;;;5051683;28;20033;-85
2021/05/14 11:17:08;;;;;;;12.77;5.65;;;;;;;;;;5052476;28;20476;-82
2021/05/14 11:19:34;;;;;;;10.02;5.65;;;;;;;;;;5051700;28;20039;-82
2021/05/14 11:22:01;;;;;;;11.27;5.72;;;;;;;;;;5051331;28;20041;-82
2021/05/14 11:24:35;;;;;;;11.10;5.82;;;;;;;;;;5051387;28;20037;-82
2021/05/14 11:27:04;;;;;;;10.63;6.30;;;;;;;;;;5052454;28;20402;-82
2021/05/14 11:29:38;;;;;;;10.85;5.30;;;;;;;;;;5052488;28;20029;-82
2021/05/14 11:32:20;;;;;;;16.13;6.53;;;;;;;;;;5051358;28;20553;-82
2021/05/14 11:34:50;;;;;;;9.45;5.75;;;;;;;;;;5051220;28;20476;-82
2021/05/14 11:37:19;;;;;;;11.00;6.22;;;;;;;;;;5052333;28;20151;-82
2021/05/14 11:39:45;;;;;;;9.40;6.05;;;;;;;;;;5052311;28;20041;-83
2021/05/14 11:42:18;;;;;;;9.73;6.00;;;;;;;;;;5034931;28;20041;-82
2021/05/14 11:45:14;;;;;;;9.30;5.18;;;;;;;;;;5034827;28;20484;-82
2021/05/14 11:47:44;;;;;;;11.30;6.70;;;;;;;;;;5025313;28;20064;-83
2021/05/14 11:50:23;;;;;;;;;;;;;;;;;;5044867;28;20412;-82
2021/05/14 11:52:49;;;;;;;10.52;5.50;;;;;;;;;;5032312;28;20033;-82
2021/05/14 11:55:15;;;;;;;10.82;5.40;;;;;;;;;;5047585;28;20038;-82
2021/05/14 11:57:45;;;;;;;10.35;5.80;;;;;;;;;;5046594;28;20037;-82
2021/05/14 12:00:12;;;;;;;10.85;5.38;;;;;;;;;;5064332;28;20547;-82
2021/05/14 12:02:39;;;;;;;13.07;4.80;;;;;;;;;;5034760;28;20045;-82
2021/05/14 12:05:05;;;;;;;11.70;5.43;;;;;;;;;;5048665;28;20068;-82
2021/05/14 12:07:31;;;;;;;10.57;5.95;;;;;;;;;;5064632;28;20037;-82
2021/05/14 12:09:58;;;;;;;8.00;5.18;;;;;;;;;;5051935;28;20041;-82
2021/05/14 12:12:24;;;;;;;13.07;6.18;;;;;;;;;;5050169;28;20040;-82
2021/05/14 12:14:50;;;;;;;13.27;5.88;;;;;;;;;;5051981;28;20039;-83
2021/05/14 12:17:16;;;;;;;13.57;5.55;;;;;;;;;;5052823;28;20104;-84
2021/05/14 12:19:46;;;;;;;9.93;5.60;;;;;;;;;;5034397;28;20091;-82
2021/05/14 12:22:14;;;;;;;9.00;5.40;;;;;;;;;;5050354;28;20040;-83
2021/05/14 12:24:40;;;;;;;12.13;5.72;;;;;;;;;;5067348;28;20116;-83
2021/05/14 12:27:10;;;;;;;7.90;5.80;;;;;;;;;;5067144;28;20112;-82
2021/05/14 12:29:36;;;;;;;8.25;4.93;;;;;;;;;;5066799;28;20472;-82
2021/05/14 12:32:03;;;;;;;11.40;6.30;;;;;;;;;;5051982;28;20037;-82
2021/05/14 12:34:29;;;;;;;9.40;6.05;;;;;;;;;;5051691;28;20037;-82
2021/05/14 12:36:58;;;;;;;10.48;5.63;;;;;;;;;;5050376;28;20561;-82
2021/05/14 12:39:24;;;;;;;12.10;5.65;;;;;;;;;;5050370;28;20037;-82
2021/05/14 12:42:23;;;;;;;9.85;5.70;;;;;;;;;;5066797;28;20053;-82
2021/05/14 12:44:47;;;;;;;10.82;5.32;;;;;;;;;;5051480;28;20087;-83
2021/05/14 12:47:24;;;;;;;8.98;5.20;;;;;;;;;;5053257;28;20481;-83
2021/05/14 12:49:51;;;;;;;10.63;5.53;;;;;;;;;;5061693;28;20072;-82
2021/05/14 12:52:22;;;;;;;12.88;5.63;;;;;;;;;;5063426;28;20049;-82
2021/05/14 12:54:52;;;;;;;10.82;5.60;;;;;;;;;;5063459;28;20065;-82
2021/05/14 12:57:22;;;;;;;9.48;5.35;;;;;;;;;;5046768;28;20473;-82
2021/05/14 12:59:49;;;;;;;11.25;5.63;;;;;;;;;;5063430;28;20041;-85
2021/05/14 13:02:18;;;;;;;11.55;6.05;;;;;;;;;;5046893;28;20473;-84
2021/05/14 13:04:44;;;;;;;10.70;5.40;;;;;;;;;;5063624;28;20044;-84
2021/05/14 13:07:12;;;;;;;9.20;5.57;;;;;;;;;;5063515;28;20120;-81
2021/05/14 13:09:38;;;;;;;9.57;5.38;;;;;;;;;;5065639;28;20418;-82
2021/05/14 13:12:04;;;;;;;10.57;5.32;;;;;;;;;;5067089;28;20052;-81
2021/05/14 13:14:30;;;;;;;10.55;5.70;;;;;;;;;;5067179;28;20555;-81
2021/05/14 13:16:56;;;;;;;9.95;5.13;;;;;;;;;;5066960;28;20041;-81
2021/05/14 13:19:23;;;;;;;8.73;5.30;;;;;;;;;;5035096;28;20512;-81
2021/05/14 13:21:50;;;;;;;11.07;6.50;;;;;;;;;;5034995;28;20505;-81
2021/05/14 13:24:16;;;;;;;7.15;5.22;;;;;;;;;;5066938;28;20042;-81
2021/05/14 13:26:42;;;;;;;8.73;5.50;;;;;;;;;;5067115;28;20091;-82
2021/05/14 13:29:08;;;;;;;8.48;5.05;;;;;;;;;;5035000;28;20492;-81
2021/05/14 13:31:34;;;;;;;8.20;5.35;;;;;;;;;;5034740;28;20116;-81
2021/05/14 13:34:00;;;;;;;9.45;6.03;;;;;;;;;;5034962;28;20116;-81
2021/05/14 13:36:27;;;;;;;8.25;5.10;;;;;;;;;;5066700;28;20504;-81
2021/05/14 13:38:53;;;;;;;10.27;5.00;;;;;;;;;;5039870;28;20043;-81
2021/05/14 13:41:19;;;;;;;13.38;5.43;;;;;;;;;;5054560;28;20041;-81
2021/05/14 13:43:46;;;;;;;11.82;6.35;;;;;;;;;;5048961;28;20481;-81
2021/05/14 13:46:12;;;;;;;12.65;5.63;;;;;;;;;;5049735;28;20048;-81
2021/05/14 13:48:38;;;;;;;11.18;5.80;;;;;;;;;;5034536;28;20036;-81
2021/05/14 13:51:05;;;;;;;10.25;6.18;;;;;;;;;;5066493;28;20033;-81
2021/05/14 13:53:31;;;;;;;9.75;5.97;;;;;;;;;;5034449;28;20041;-81
2021/05/14 13:55:57;;;;;;;8.45;5.82;;;;;;;;;;5034376;28;20045;-81
2021/05/14 13:58:23;;;;;;;7.63;5.32;;;;;;;;;;5066156;28;20037;-81
2021/05/14 14:00:50;;;;;;;9.48;5.35;;;;;;;;;;5034235;28;20458;-81
2021/05/14 14:03:16;;;;;;;11.10;6.25;;;;;;;;;;5066446;28;20095;-81
2021/05/14 14:05:43;;;;;;;13.10;6.25;;;;;;;;;;5066290;28;20067;-81
2021/05/14 14:08:09;;;;;;;11.00;6.25;;;;;;;;;;5034122;28;20401;-84
2021/05/14 14:10:35;;;;;;;10.73;5.57;;;;;;;;;;5066060;28;20038;-81
2021/05/14 14:13:03;;;;;;;9.77;6.15;;;;;;;;;;5034141;28;20096;-82
2021/05/14 14:15:29;;;;;;;8.10;5.22;;;;;;;;;;5065957;28;20039;-82
2021/05/14 14:17:55;;;;;;;6.35;4.85;;;;;;;;;;5065775;28;20038;-82
2021/05/14 14:20:21;;;;;;;11.57;6.30;;;;;;;;;;5064919;28;20067;-83
2021/05/14 14:22:47;;;;;;;9.32;5.60;;;;;;;;;;5065954;28;20052;-83
2021/05/14 14:25:14;;;;;;;7.00;5.60;;;;;;;;;;5065463;28;20045;-83
2021/05/14 14:27:41;;;;;;;10.10;5.70;;;;;;;;;;5065656;28;20034;-83
2021/05/14 14:30:07;;;;;;;9.05;5.50;;;;;;;;;;5033543;28;20124;-82
2021/05/14 14:32:33;;;;;;;9.15;5.00;;;;;;;;;;5065446;28;20427;-83
2021/05/14 14:34:59;;;;;;;8.98;4.93;;;;;;;;;;5065539;28;20477;-82
2021/05/14 14:37:25;;;;;;;8.50;4.78;;;;;;;;;;5065497;28;20432;-81
2021/05/14 14:39:51;;;;;;;10.63;5.22;;;;;;;;;;5033465;28;20044;-83
2021/05/14 14:42:18;;;;;;;9.98;4.53;;;;;;;;;;5065506;28;20405;-81
2021/05/14 14:44:44;;;;;;;8.15;4.55;;;;;;;;;;5065647;28;20041;-81